Observations
| Time | Sensor | AQI | SAQ | Temp °C | Hum % | Pres Pa | CO μg/m³ | H₂S μg/m³ | NO μg/m³ | NO₂ μg/m³ | O₃ μg/m³ | SO₂ μg/m³ | CO₂e PPM | VOC PPM | PM1 μg/m³ | PM2.5 μg/m³ | PM4 μg/m³ | PM10 μg/m³ | TPS µm |
|---|---|---|---|---|---|---|---|---|---|---|---|---|---|---|---|---|---|---|---|
| Wednesday 12 August 2026 | |||||||||||||||||||
| 20:52 | Trim Patrick St | 3 | 28.1 | 44 | 69,254 | 0 | 18.51 | 0.65 | 23.21 | 64.79 | 13.93 | 5.43 | 10.65 | 11.71 | |||||
| 20:51 | Trim Patrick St | 3 | 28.2 | 44 | 69,262 | 0 | 19.06 | 0.62 | 21.71 | 66.82 | 14.29 | 3.71 | 9.11 | 10.02 | |||||
| 20:50 | Trim Market St | 3 | 28.3 | 43 | 65,224 | 0 | 0.79 | 0.61 | 15.69 | 77.51 | 0 | 2.85 | 5.39 | 7.53 | |||||
| 20:50 | Trim Patrick St | 3 | 28.2 | 44 | 69,276 | 0 | 19.68 | 0.62 | 27.93 | 61.98 | 13.69 | 4.57 | 9.89 | 10.88 | |||||
| 20:49 | Trim Patrick St | 3 | 28.3 | 44 | 69,258 | 0 | 19.32 | 0.61 | 35.22 | 61.2 | 13.37 | 2.86 | 8.34 | 9.18 | |||||
| 20:48 | Trim Patrick St | 3 | 28.3 | 44 | 69,264 | 0 | 18.6 | 0.61 | 20.31 | 62.81 | 14.56 | 2.86 | 8.38 | 9.22 | |||||
| 20:47 | Trim Market St | 3 | 28.4 | 42 | 65,315 | 0 | 0.65 | 0.6 | 17.57 | 80.06 | 0 | 1.43 | 3.82 | 5.16 | |||||
| 20:47 | Trim Patrick St | 3 | 28.4 | 44 | 69,242 | 0 | 19.29 | 0.57 | 21.19 | 70.61 | 14.44 | 4.57 | 9.15 | 10.06 | |||||
| 20:46 | Trim Patrick St | 3 | 28.4 | 43 | 69,242 | 0 | 19.88 | 0.6 | 22.06 | 73.04 | 14.32 | 4.57 | 9.96 | 10.96 | |||||
| 20:43 | Trim Market St | 3 | 28.5 | 42 | 65,416 | 0 | 0 | 0.61 | 14.87 | 80.18 | 0 | 1.43 | 3.84 | 4.36 | |||||
| 20:42 | Trim Market St | 3 | 28.6 | 42 | 65,419 | 0 | 0.29 | 0.59 | 14.32 | 81.97 | 0 | 1.43 | 4.36 | 5.94 | |||||
| 20:41 | Trim Market St | 3 | 28.6 | 42 | 65,454 | 0 | 0 | 0.58 | 15.05 | 78.73 | 0 | 2.14 | 4.89 | 6.73 | |||||
| 20:40 | Trim Market St | 3 | 28.7 | 42 | 65,468 | 0 | 0 | 0.56 | 14.49 | 79.99 | 0 | 2.14 | 4.89 | 6.73 | |||||
| 20:39 | Trim Market St | 3 | 28.7 | 42 | 65,487 | 0 | 0.45 | 0.57 | 15.68 | 77.11 | 0 | 2.14 | 4.9 | 5.94 | |||||
| 20:38 | Trim Market St | 3 | 28.7 | 42 | 65,513 | 0 | 1.09 | 0.56 | 16.63 | 80.7 | 0 | 2.14 | 5.43 | 6.73 | |||||
| 20:37 | Trim Market St | 3 | 28.8 | 42 | 65,542 | 0 | 0.28 | 0.56 | 17.22 | 77.52 | 0 | 2.85 | 5.44 | 5.94 | |||||
| 20:36 | Trim Market St | 3 | 28.8 | 42 | 65,527 | 0 | 0.92 | 0.57 | 17.43 | 79.99 | 0 | 1.43 | 5.96 | 7.53 | |||||
| 20:36 | Trim Patrick St | 3 | 29 | 43 | 69,288 | 0 | 22.07 | 0.55 | 19.21 | 67.56 | 15.29 | 3.71 | 9.21 | 10.13 | |||||
| 20:35 | Trim Market St | 3 | 28.9 | 42 | 65,534 | 0 | 0 | 0.56 | 16.73 | 75.35 | 0 | 2.14 | 4.91 | 5.14 | |||||
| 20:35 | Trim Patrick St | 3 | 29 | 43 | 69,296 | 0 | 21.26 | 0.58 | 23.56 | 75.58 | 15.65 | 2 | 8.43 | 9.27 | |||||